Time;durP1;ratioP1;P1;durP2;ratioP2;P2;SDS_P1;SDS_P2;PMS_P1;PMS_P2;Temp;Humidity;BMP_temperature;BMP_pressure;BME280_temperature;BME280_humidity;BME280_pressure;Samples;Min_cycle;Max_cycle;Signal;HPM_P1;HPM_P2
2022/04/12 00:00:33;;;;;;;10.32;4.53;;;9.50;89.10;;;;;;5007788;28;20030;-78
2022/04/12 00:02:59;;;;;;;8.00;4.60;;;9.50;89.80;;;;;;5006007;28;20032;-77
2022/04/12 00:05:25;;;;;;;8.25;4.40;;;9.50;90.30;;;;;;5004255;28;20030;-77
2022/04/12 00:07:51;;;;;;;12.27;4.93;;;9.40;90.40;;;;;;5004956;28;20383;-77
2022/04/12 00:10:17;;;;;;;7.82;4.47;;;9.40;90.40;;;;;;5005729;28;20478;-77
2022/04/12 00:12:43;;;;;;;10.30;5.00;;;9.30;90.30;;;;;;5005760;28;20034;-77
2022/04/12 00:15:10;;;;;;;7.97;4.43;;;9.30;90.40;;;;;;5002959;28;20018;-78
2022/04/12 00:20:25;;;;;;;7.22;3.60;;;9.30;90.60;;;;;;5005367;28;20029;-77
2022/04/12 00:22:51;;;;;;;7.90;4.25;;;9.20;91.00;;;;;;5000318;28;20022;-77
2022/04/12 00:25:18;;;;;;;7.65;4.65;;;9.20;91.30;;;;;;5016756;28;20088;-78
2022/04/12 00:27:44;;;;;;;13.40;4.15;;;9.20;91.60;;;;;;5005482;28;20363;-78
2022/04/12 00:30:13;;;;;;;8.93;4.22;;;9.10;91.90;;;;;;5015221;28;20061;-77
2022/04/12 00:32:39;;;;;;;10.48;5.00;;;9.10;92.10;;;;;;5016956;28;20044;-78
2022/04/12 00:35:06;;;;;;;11.48;4.70;;;9.10;92.20;;;;;;5004947;28;20108;-78
2022/04/12 00:37:32;;;;;;;9.20;4.38;;;9.10;92.50;;;;;;5003702;28;20498;-78
2022/04/12 00:39:57;;;;;;;10.07;4.47;;;9.00;92.60;;;;;;5003600;28;20436;-77
2022/04/12 00:42:23;;;;;;;7.55;3.90;;;9.00;93.00;;;;;;5000732;28;20101;-79
2022/04/12 00:44:49;;;;;;;7.05;4.10;;;9.00;93.30;;;;;;5001668;28;20030;-79
2022/04/12 00:47:15;;;;;;;9.00;4.13;;;9.00;93.00;;;;;;5001214;28;20112;-78
2022/04/12 00:49:41;;;;;;;7.28;4.50;;;9.00;93.20;;;;;;5005341;28;20389;-79
2022/04/12 00:52:08;;;;;;;8.52;4.38;;;9.00;93.30;;;;;;5002830;28;20018;-77
2022/04/12 00:54:37;;;;;;;8.07;4.28;;;9.00;93.30;;;;;;5008125;28;20022;-78
2022/04/12 00:57:04;;;;;;;8.00;4.00;;;9.00;93.40;;;;;;4999922;28;20036;-78
2022/04/12 00:59:34;;;;;;;7.13;3.83;;;9.00;93.70;;;;;;5004959;28;20088;-79
2022/04/12 01:02:05;;;;;;;6.53;3.60;;;9.00;94.10;;;;;;5046435;23;20051;-71
2022/04/12 01:04:40;;;;;;;10.75;4.15;;;8.90;94.20;;;;;;5044048;28;20036;-71
2022/04/12 01:07:06;;;;;;;10.30;4.07;;;8.90;94.30;;;;;;5042706;28;20025;-72
2022/04/12 01:09:31;;;;;;;8.10;4.18;;;8.90;94.50;;;;;;5044034;28;20095;-72
2022/04/12 01:12:08;;;;;;;10.98;4.00;;;8.80;94.50;;;;;;5037489;28;20021;-70
2022/04/12 01:14:34;;;;;;;11.45;3.95;;;8.80;94.80;;;;;;5031914;28;20022;-71
2022/04/12 01:17:04;;;;;;;8.10;4.32;;;8.80;94.90;;;;;;5066955;28;20032;-70
2022/04/12 01:19:33;;;;;;;7.53;3.97;;;8.70;95.40;;;;;;5071653;28;20032;-70
2022/04/12 01:22:03;;;;;;;7.80;3.95;;;8.70;95.70;;;;;;5071865;28;20021;-70
2022/04/12 01:24:33;;;;;;;7.38;3.45;;;8.60;95.90;;;;;;5070560;28;20626;-70
2022/04/12 01:27:00;;;;;;;9.48;4.30;;;8.60;96.10;;;;;;5071712;28;20023;-70
2022/04/12 01:29:30;;;;;;;7.55;3.42;;;8.50;96.30;;;;;;5071775;28;20048;-70
2022/04/12 01:31:56;;;;;;;7.75;3.95;;;8.40;96.30;;;;;;5055106;28;20028;-71
2022/04/12 01:34:24;;;;;;;5.03;3.45;;;8.40;96.90;;;;;;5051771;28;20509;-70
2022/04/12 01:36:50;;;;;;;8.23;3.78;;;8.30;97.00;;;;;;5050326;28;20032;-71
2022/04/12 01:39:15;;;;;;;6.30;3.58;;;8.30;97.30;;;;;;5046570;28;20404;-71
2022/04/12 01:41:47;;;;;;;8.45;3.78;;;8.30;98.00;;;;;;5051514;28;20028;-71
2022/04/12 01:44:13;;;;;;;6.25;3.75;;;8.20;98.70;;;;;;5051577;28;20498;-71
2022/04/12 01:46:38;;;;;;;9.38;4.32;;;8.20;99.20;;;;;;5050176;28;20028;-72
2022/04/12 01:49:04;;;;;;;9.75;4.07;;;8.10;99.50;;;;;;5050150;28;20029;-70
2022/04/12 01:51:33;;;;;;;9.60;4.07;;;8.10;99.90;;;;;;5051420;28;20021;-71
2022/04/12 01:53:58;;;;;;;10.30;4.30;;;8.00;99.90;;;;;;5051460;28;20028;-71
2022/04/12 01:56:24;;;;;;;6.43;3.72;;;8.00;99.90;;;;;;5051277;28;20075;-71
2022/04/12 01:58:53;;;;;;;6.28;3.50;;;7.90;99.90;;;;;;5051347;28;20068;-71
2022/04/12 02:01:18;;;;;;;7.53;3.83;;;7.90;99.90;;;;;;5050099;28;20065;-71
2022/04/12 02:03:44;;;;;;;7.00;3.83;;;7.80;99.90;;;;;;5050186;28;20061;-72
2022/04/12 02:06:09;;;;;;;9.18;4.18;;;7.80;99.90;;;;;;5051310;28;20017;-71
2022/04/12 02:08:35;;;;;;;7.03;3.78;;;7.60;99.90;;;;;;5050035;28;20078;-70
2022/04/12 02:11:04;;;;;;;8.23;3.72;;;7.60;99.90;;;;;;5051202;28;20032;-71
2022/04/12 02:13:30;;;;;;;5.93;3.58;;;7.50;99.90;;;;;;5051354;28;20424;-71
2022/04/12 02:15:55;;;;;;;8.15;3.80;;;7.50;99.90;;;;;;5051273;28;20029;-71
2022/04/12 02:18:24;;;;;;;8.38;4.18;;;7.40;99.90;;;;;;5051202;28;20033;-70
2022/04/12 02:20:50;;;;;;;6.85;3.88;;;7.40;99.90;;;;;;5053392;28;20044;-71
2022/04/12 02:23:15;;;;;;;5.80;3.33;;;7.40;99.90;;;;;;5067049;28;20448;-70
2022/04/12 02:25:41;;;;;;;8.52;4.22;;;7.40;99.90;;;;;;5074872;28;20382;-70
2022/04/12 02:28:14;;;;;;;6.32;3.28;;;7.30;99.90;;;;;;5060594;28;20447;-70
2022/04/12 02:30:40;;;;;;;5.85;3.42;;;7.30;99.90;;;;;;5053277;28;20497;-70
2022/04/12 02:33:08;;;;;;;5.13;3.25;;;7.20;99.90;;;;;;5054748;28;20040;-71
2022/04/12 02:35:40;;;;;;;4.93;3.40;;;7.20;99.90;;;;;;5053310;28;20021;-69
2022/04/12 02:38:06;;;;;;;7.63;3.83;;;7.10;99.90;;;;;;5054660;28;20032;-70
2022/04/12 02:40:32;;;;;;;10.38;4.90;;;7.00;99.90;;;;;;5053298;28;20029;-71
2022/04/12 02:42:57;;;;;;;6.72;4.50;;;7.00;99.90;;;;;;5051637;28;20025;-69
2022/04/12 02:45:23;;;;;;;7.82;3.80;;;6.90;99.90;;;;;;5050253;28;20029;-70
2022/04/12 02:47:48;;;;;;;5.93;4.30;;;6.80;99.90;;;;;;5042548;28;20029;-70
2022/04/12 02:50:17;;;;;;;7.38;3.83;;;6.80;99.90;;;;;;5045798;28;20026;-71
2022/04/12 02:52:43;;;;;;;8.43;4.28;;;6.70;99.90;;;;;;5047582;28;20025;-71
2022/04/12 02:55:14;;;;;;;8.85;4.57;;;6.70;99.90;;;;;;5047595;28;20028;-71
2022/04/12 02:57:40;;;;;;;6.72;3.95;;;6.70;99.90;;;;;;5049731;28;20603;-72
2022/04/12 03:00:07;;;;;;;8.68;4.18;;;6.60;99.90;;;;;;5048994;28;20112;-72
2022/04/12 03:02:35;;;;;;;7.05;3.92;;;6.60;99.90;;;;;;5046254;28;20033;-72
2022/04/12 03:05:04;;;;;;;9.18;4.20;;;6.50;99.90;;;;;;5051301;28;20040;-70
2022/04/12 03:07:31;;;;;;;7.07;4.13;;;6.40;99.90;;;;;;5044993;28;20116;-71
2022/04/12 03:09:56;;;;;;;8.02;3.92;;;6.40;99.90;;;;;;5048229;28;20029;-71
2022/04/12 03:12:22;;;;;;;7.78;4.15;;;6.40;99.90;;;;;;5045040;28;20436;-71
2022/04/12 03:14:48;;;;;;;8.32;4.30;;;6.30;99.90;;;;;;5048798;28;20112;-71
2022/04/12 03:17:13;;;;;;;9.13;4.43;;;6.30;99.90;;;;;;5044561;28;20104;-69
2022/04/12 03:19:42;;;;;;;12.45;4.30;;;6.20;99.90;;;;;;5051260;28;20444;-72
2022/04/12 03:22:12;;;;;;;6.95;4.10;;;6.20;99.90;;;;;;5052514;28;20485;-72
2022/04/12 03:24:38;;;;;;;7.63;3.88;;;6.10;99.90;;;;;;5053729;28;20025;-72
2022/04/12 03:27:05;;;;;;;8.30;4.10;;;6.10;99.90;;;;;;5053720;28;20107;-71
2022/04/12 03:29:31;;;;;;;10.13;4.32;;;6.10;99.90;;;;;;5052968;28;20029;-71
2022/04/12 03:31:56;;;;;;;7.75;4.03;;;6.10;99.90;;;;;;5052807;28;20440;-71
2022/04/12 03:34:22;;;;;;;11.15;4.32;;;6.00;99.90;;;;;;5052274;28;20032;-71
2022/04/12 03:36:48;;;;;;;11.50;4.38;;;6.00;99.90;;;;;;5053366;28;20036;-71
2022/04/12 03:39:21;;;;;;;7.15;4.03;;;6.00;99.90;;;;;;5053221;28;20474;-71
2022/04/12 03:41:48;;;;;;;7.80;4.03;;;6.00;99.90;;;;;;5053077;28;20025;-71
2022/04/12 03:44:15;;;;;;;6.88;3.63;;;6.00;99.90;;;;;;5053161;28;20028;-71
2022/04/12 03:46:41;;;;;;;8.15;3.83;;;6.00;99.90;;;;;;5050897;28;20031;-71
2022/04/12 03:49:10;;;;;;;6.32;4.20;;;6.00;99.90;;;;;;5031983;28;20037;-71
2022/04/12 03:51:42;;;;;;;6.90;4.38;;;6.00;99.90;;;;;;5031894;28;20033;-70
2022/04/12 03:54:13;;;;;;;11.20;5.05;;;6.00;99.90;;;;;;5049713;28;20033;-70
2022/04/12 03:56:41;;;;;;;7.57;4.35;;;5.90;99.90;;;;;;5052626;28;20025;-70
2022/04/12 03:59:07;;;;;;;8.68;4.25;;;5.90;99.90;;;;;;5051811;28;20033;-71
2022/04/12 04:01:41;;;;;;;9.32;4.68;;;5.90;99.90;;;;;;5052716;28;20393;-71
2022/04/12 04:04:07;;;;;;;7.78;4.68;;;5.80;99.90;;;;;;5052969;28;20557;-71
2022/04/12 04:06:33;;;;;;;10.10;5.57;;;5.70;99.90;;;;;;5051536;28;20056;-71
2022/04/12 04:08:59;;;;;;;10.07;4.18;;;5.70;99.90;;;;;;5052987;28;20086;-71
2022/04/12 04:11:24;;;;;;;11.27;4.93;;;5.60;99.90;;;;;;5052582;28;20025;-71
2022/04/12 04:13:50;;;;;;;14.95;4.07;;;5.60;99.90;;;;;;5046154;28;20082;-72
2022/04/12 04:16:15;;;;;;;9.85;4.35;;;5.60;99.90;;;;;;5044982;28;20060;-72
2022/04/12 04:18:41;;;;;;;11.75;4.85;;;5.60;99.90;;;;;;5051055;28;20033;-72
2022/04/12 04:21:07;;;;;;;10.45;5.05;;;5.60;99.90;;;;;;5052158;28;20115;-72
2022/04/12 04:23:47;;;;;;;11.43;6.68;;;5.60;99.90;;;;;;5052381;28;20520;-72
2022/04/12 04:26:16;;;;;;;15.07;6.78;;;5.60;99.90;;;;;;5051982;28;20029;-72
2022/04/12 04:28:44;;;;;;;9.63;5.22;;;5.60;99.90;;;;;;5051067;28;20485;-71
2022/04/12 04:31:12;;;;;;;9.20;5.10;;;5.70;99.90;;;;;;5044521;28;20024;-71
2022/04/12 04:33:38;;;;;;;5.50;3.85;;;5.70;99.90;;;;;;5039067;28;20017;-72
2022/04/12 04:36:04;;;;;;;9.40;4.75;;;5.70;99.90;;;;;;5045533;28;20029;-71
2022/04/12 04:38:30;;;;;;;8.38;4.93;;;5.70;99.90;;;;;;5043562;28;20135;-71
2022/04/12 04:40:56;;;;;;;11.18;5.47;;;5.70;99.90;;;;;;5043501;28;20022;-72
2022/04/12 04:43:21;;;;;;;9.38;5.07;;;5.60;99.90;;;;;;5046935;28;20021;-72
2022/04/12 04:45:47;;;;;;;9.25;4.93;;;5.60;99.90;;;;;;5044614;28;20059;-72
2022/04/12 04:48:13;;;;;;;10.43;5.43;;;5.60;99.90;;;;;;5040445;28;20047;-71
2022/04/12 04:50:39;;;;;;;8.88;5.93;;;5.60;99.90;;;;;;5049547;28;20024;-71
2022/04/12 04:53:06;;;;;;;14.60;6.85;;;5.50;99.90;;;;;;5051849;28;20113;-73
2022/04/12 04:55:36;;;;;;;14.55;5.90;;;5.60;99.90;;;;;;5052192;28;20055;-73
2022/04/12 04:58:02;;;;;;;10.13;5.35;;;5.50;99.90;;;;;;5050833;28;20064;-72
2022/04/12 05:00:32;;;;;;;13.52;5.40;;;5.60;99.90;;;;;;5050575;28;20393;-73
2022/04/12 05:02:58;;;;;;;14.38;5.93;;;5.60;99.90;;;;;;5050772;28;20017;-72
2022/04/12 05:05:25;;;;;;;15.43;5.95;;;5.50;99.90;;;;;;5050779;28;20516;-72
2022/04/12 05:07:52;;;;;;;12.07;6.97;;;5.60;99.90;;;;;;5051583;28;20078;-71
2022/04/12 05:10:29;;;;;;;13.00;6.40;;;5.60;99.90;;;;;;5051906;28;20029;-71
2022/04/12 05:12:55;;;;;;;11.45;5.78;;;5.60;99.90;;;;;;5050541;28;20025;-72
2022/04/12 05:15:22;;;;;;;10.25;5.47;;;5.60;99.90;;;;;;5051979;28;20021;-72
2022/04/12 05:17:51;;;;;;;10.38;4.88;;;5.60;99.90;;;;;;5051874;28;20071;-72
2022/04/12 05:20:18;;;;;;;10.80;5.85;;;5.60;99.90;;;;;;5051664;28;20388;-72
2022/04/12 05:22:44;;;;;;;12.05;5.68;;;5.60;99.90;;;;;;5046624;28;20493;-71
2022/04/12 05:25:10;;;;;;;8.10;5.28;;;5.70;99.90;;;;;;5040280;28;20052;-71
2022/04/12 05:27:36;;;;;;;11.18;5.88;;;5.70;99.90;;;;;;5044904;28;20445;-71
2022/04/12 05:30:03;;;;;;;13.77;5.32;;;5.80;99.90;;;;;;5039581;28;20801;-71
2022/04/12 05:32:29;;;;;;;13.80;7.40;;;5.90;99.90;;;;;;5044962;28;20112;-71
2022/04/12 05:34:55;;;;;;;14.13;5.78;;;6.00;99.90;;;;;;5045791;28;20672;-72
2022/04/12 05:37:21;;;;;;;15.43;7.68;;;6.10;99.90;;;;;;5040170;28;20138;-72
2022/04/12 05:39:46;;;;;;;13.98;6.82;;;6.20;99.90;;;;;;5043494;28;20064;-71
2022/04/12 05:42:12;;;;;;;19.50;11.48;;;6.20;99.90;;;;;;5045899;28;20013;-72
2022/04/12 05:44:38;;;;;;;20.38;9.85;;;6.30;99.90;;;;;;5044529;28;20104;-72
2022/04/12 05:47:04;;;;;;;18.92;10.88;;;6.40;99.90;;;;;;5042402;28;20021;-71
2022/04/12 05:49:30;;;;;;;14.98;8.82;;;6.40;99.90;;;;;;5049935;28;20048;-72
2022/04/12 05:51:57;;;;;;;22.83;10.25;;;6.50;99.90;;;;;;5051315;28;20021;-71
2022/04/12 05:54:23;;;;;;;18.70;8.73;;;6.60;99.90;;;;;;5053253;28;20424;-73
2022/04/12 05:56:49;;;;;;;25.80;11.35;;;6.70;99.90;;;;;;5053382;28;20423;-73
2022/04/12 05:59:14;;;;;;;15.02;8.63;;;6.80;99.90;;;;;;5054014;28;20100;-71
2022/04/12 06:01:40;;;;;;;14.23;7.25;;;6.90;99.90;;;;;;5053863;28;20068;-73
2022/04/12 06:04:06;;;;;;;12.23;7.10;;;7.00;99.90;;;;;;5055173;28;20044;-73
2022/04/12 06:06:33;;;;;;;20.20;7.70;;;7.00;99.90;;;;;;5055313;28;20028;-73
2022/04/12 06:09:02;;;;;;;15.45;6.45;;;7.00;99.90;;;;;;5055210;28;20413;-73
2022/04/12 06:11:28;;;;;;;11.48;6.82;;;7.20;99.90;;;;;;5055196;28;20363;-72
2022/04/12 06:13:54;;;;;;;10.25;5.72;;;7.30;99.90;;;;;;5055158;28;20028;-74
2022/04/12 06:16:20;;;;;;;12.10;6.07;;;7.30;99.90;;;;;;5055137;28;20036;-74
2022/04/12 06:18:45;;;;;;;11.77;5.32;;;7.40;99.90;;;;;;5055118;28;20049;-73
2022/04/12 06:21:11;;;;;;;9.50;5.57;;;7.40;99.90;;;;;;5054926;28;20020;-72
2022/04/12 06:23:37;;;;;;;10.50;5.90;;;7.50;99.90;;;;;;5049576;28;20043;-73
2022/04/12 06:26:03;;;;;;;8.60;5.05;;;7.60;99.90;;;;;;5035458;28;20055;-72
2022/04/12 06:28:30;;;;;;;8.80;4.97;;;7.60;99.90;;;;;;5037781;28;20078;-73
2022/04/12 06:30:59;;;;;;;11.10;6.50;;;7.70;99.90;;;;;;5053182;28;20120;-73
2022/04/12 06:33:26;;;;;;;10.70;5.25;;;7.70;99.90;;;;;;5053277;28;20031;-72
2022/04/12 06:35:52;;;;;;;10.13;4.93;;;7.70;99.90;;;;;;5053457;28;20032;-72
2022/04/12 06:38:18;;;;;;;12.93;5.45;;;7.80;99.90;;;;;;5053630;28;20032;-72
2022/04/12 06:40:45;;;;;;;9.52;5.70;;;7.90;99.90;;;;;;5054571;28;20021;-72
2022/04/12 06:43:11;;;;;;;11.05;6.07;;;7.80;99.90;;;;;;5053242;28;20382;-73
2022/04/12 06:45:38;;;;;;;11.25;5.03;;;7.80;99.90;;;;;;5054520;28;20025;-73
2022/04/12 06:48:04;;;;;;;9.68;4.95;;;7.90;99.90;;;;;;5054581;28;20045;-73
2022/04/12 06:50:30;;;;;;;9.40;5.38;;;7.90;99.90;;;;;;5057681;28;20036;-73
2022/04/12 06:52:58;;;;;;;10.50;4.82;;;7.90;99.90;;;;;;5048345;28;20033;-74
2022/04/12 06:55:24;;;;;;;10.52;5.25;;;8.00;99.90;;;;;;5041981;28;20017;-73
2022/04/12 06:57:50;;;;;;;9.07;5.20;;;8.00;99.90;;;;;;5048269;28;20079;-74
2022/04/12 07:00:19;;;;;;;10.77;4.55;;;8.10;99.90;;;;;;5054002;28;20113;-74
2022/04/12 07:02:44;;;;;;;7.72;4.68;;;8.30;99.90;;;;;;5053767;28;20382;-74
2022/04/12 07:05:11;;;;;;;9.30;4.63;;;8.40;99.90;;;;;;5053926;28;20067;-73
2022/04/12 07:07:41;;;;;;;7.97;4.68;;;8.50;99.90;;;;;;5054087;28;20044;-74
2022/04/12 07:10:08;;;;;;;10.30;5.50;;;8.60;99.90;;;;;;5052475;28;20119;-74
2022/04/12 07:12:35;;;;;;;10.70;5.40;;;8.70;99.90;;;;;;5051668;28;20044;-73
2022/04/12 07:15:01;;;;;;;8.23;4.80;;;8.80;99.90;;;;;;5035758;28;20032;-73
2022/04/12 07:17:26;;;;;;;10.30;4.82;;;8.90;99.90;;;;;;5042123;28;20566;-73
2022/04/12 07:19:52;;;;;;;15.38;5.95;;;8.90;99.90;;;;;;5039873;28;20034;-74
2022/04/12 07:22:18;;;;;;;17.10;5.60;;;9.00;99.90;;;;;;5043518;28;20021;-73
2022/04/12 07:24:44;;;;;;;9.23;4.63;;;9.10;99.90;;;;;;5046063;28;20063;-72
2022/04/12 07:27:09;;;;;;;7.45;4.47;;;9.20;99.90;;;;;;5044869;28;20017;-73
2022/04/12 07:29:35;;;;;;;15.20;5.47;;;9.30;99.90;;;;;;5037996;28;20050;-73
2022/04/12 07:32:01;;;;;;;10.75;5.25;;;9.40;99.90;;;;;;5040232;28;20032;-73
2022/04/12 07:34:27;;;;;;;8.65;5.30;;;9.50;99.90;;;;;;5045650;28;20037;-74
2022/04/12 07:36:55;;;;;;;11.60;5.22;;;9.70;99.90;;;;;;5042580;28;20068;-64
2022/04/12 07:39:22;;;;;;;9.02;4.80;;;9.80;99.90;;;;;;5042942;28;20055;-66
2022/04/12 07:41:48;;;;;;;7.20;4.60;;;10.00;99.90;;;;;;5047343;28;20048;-65
2022/04/12 07:44:15;;;;;;;9.60;4.82;;;10.20;99.90;;;;;;5036562;28;20079;-67
2022/04/12 07:46:41;;;;;;;9.90;4.88;;;10.30;99.90;;;;;;5038151;28;20433;-72
2022/04/12 07:49:07;;;;;;;9.00;5.22;;;10.40;99.90;;;;;;5045861;28;20028;-73
2022/04/12 07:51:39;;;;;;;14.40;5.05;;;10.50;99.90;;;;;;5041101;28;20036;-72
2022/04/12 07:54:06;;;;;;;9.52;4.47;;;10.60;99.90;;;;;;5044857;28;20036;-71
2022/04/12 07:56:35;;;;;;;10.50;5.15;;;10.70;99.90;;;;;;5039894;28;20060;-73
2022/04/12 07:59:01;;;;;;;7.70;4.78;;;10.80;99.90;;;;;;5039116;28;20056;-71
2022/04/12 08:01:26;;;;;;;10.20;4.90;;;10.90;99.90;;;;;;5045519;28;20381;-72
2022/04/12 08:03:52;;;;;;;8.27;5.43;;;10.90;99.90;;;;;;5038430;28;20033;-74
2022/04/12 08:06:18;;;;;;;7.03;4.78;;;10.90;99.90;;;;;;5033635;28;20351;-72
2022/04/12 08:08:44;;;;;;;7.20;4.88;;;11.10;99.90;;;;;;5035609;28;20520;-72
2022/04/12 08:11:11;;;;;;;7.40;4.55;;;11.20;99.90;;;;;;5036375;28;20561;-72
2022/04/12 08:13:36;;;;;;;8.60;4.97;;;11.30;99.90;;;;;;5042402;28;20037;-72
2022/04/12 08:16:03;;;;;;;8.30;5.30;;;11.40;99.90;;;;;;5039002;28;20482;-72
2022/04/12 08:18:28;;;;;;;10.38;5.00;;;11.50;99.90;;;;;;5039873;28;20116;-72
2022/04/12 08:20:54;;;;;;;10.10;5.57;;;11.60;99.90;;;;;;5038143;28;20561;-68
2022/04/12 08:23:24;;;;;;;11.25;5.38;;;11.80;99.90;;;;;;5043103;28;20100;-71
2022/04/12 08:25:53;;;;;;;8.93;5.15;;;11.90;99.90;;;;;;5037212;28;20052;-72
2022/04/12 08:28:19;;;;;;;17.00;5.13;;;12.10;99.90;;;;;;5040108;28;20037;-72
2022/04/12 08:30:45;;;;;;;13.75;5.35;;;12.20;99.90;;;;;;5045145;28;20504;-73
2022/04/12 08:33:11;;;;;;;6.63;4.57;;;12.30;99.90;;;;;;5038466;28;20093;-72
2022/04/12 08:35:37;;;;;;;10.13;5.20;;;12.50;99.80;;;;;;5041898;28;20032;-71
2022/04/12 08:38:03;;;;;;;8.75;4.93;;;12.60;99.80;;;;;;5039802;28;20378;-71
2022/04/12 08:40:32;;;;;;;8.95;4.45;;;12.70;98.80;;;;;;5043558;28;20030;-74
2022/04/12 08:42:59;;;;;;;8.70;4.70;;;12.80;98.70;;;;;;5042751;28;20801;-73
2022/04/12 08:45:25;;;;;;;8.82;4.20;;;12.80;98.10;;;;;;5037873;28;20262;-69
2022/04/12 08:47:52;;;;;;;8.48;4.50;;;12.90;98.60;;;;;;5039245;28;20029;-73
2022/04/12 08:50:20;;;;;;;6.90;4.47;;;13.00;97.90;;;;;;5041564;28;20056;-72
2022/04/12 08:52:47;;;;;;;11.63;4.80;;;13.10;96.60;;;;;;5035231;28;20033;-72
2022/04/12 08:55:13;;;;;;;8.80;4.72;;;13.30;98.00;;;;;;5043238;28;20033;-74
2022/04/12 08:57:39;;;;;;;9.77;5.15;;;13.40;97.30;;;;;;5036740;28;20729;-68
2022/04/12 09:00:06;;;;;;;11.35;5.38;;;13.50;96.50;;;;;;5030398;28;20036;-72
2022/04/12 09:02:32;;;;;;;10.55;4.60;;;13.70;95.40;;;;;;5037989;28;20462;-73
2022/04/12 09:04:58;;;;;;;8.70;4.70;;;13.80;95.00;;;;;;5035438;28;20572;-73
2022/04/12 09:07:28;;;;;;;8.32;4.85;;;14.00;94.60;;;;;;5041407;28;20104;-70
2022/04/12 09:10:07;;;;;;;8.85;4.78;;;14.20;94.30;;;;;;5033940;28;20037;-72
2022/04/12 09:12:34;;;;;;;8.38;5.03;;;14.40;94.20;;;;;;5034773;28;20029;-72
2022/04/12 09:15:00;;;;;;;8.75;4.60;;;14.50;93.00;;;;;;5037890;28;20846;-73
2022/04/12 09:17:35;;;;;;;7.25;4.53;;;14.50;92.70;;;;;;5038553;28;20407;-73
2022/04/12 09:20:09;;;;;;;9.02;5.10;;;14.60;92.00;;;;;;5035290;28;20354;-73
2022/04/12 09:22:35;;;;;;;12.25;4.85;;;14.70;92.00;;;;;;5034139;28;20110;-72
2022/04/12 09:25:03;;;;;;;15.20;5.57;;;14.80;91.50;;;;;;5036131;28;20052;-73
2022/04/12 09:27:31;;;;;;;8.98;5.03;;;14.70;91.10;;;;;;5031307;28;20028;-73
2022/04/12 09:30:03;;;;;;;10.45;5.13;;;14.80;91.20;;;;;;5046020;28;20481;-73
2022/04/12 09:32:34;;;;;;;10.38;4.60;;;14.80;90.90;;;;;;5041315;28;20901;-73
2022/04/12 09:35:00;;;;;;;16.50;5.80;;;14.70;90.80;;;;;;5045497;28;20116;-73
2022/04/12 09:37:36;;;;;;;10.65;5.45;;;14.80;91.00;;;;;;5042804;28;20104;-73
2022/04/12 09:40:02;;;;;;;14.73;7.25;;;14.80;91.20;;;;;;5045399;28;20481;-72
2022/04/12 09:42:48;;;;;;;11.27;5.10;;;14.90;91.30;;;;;;5038393;28;20060;-73
2022/04/12 09:45:17;;;;;;;9.45;4.70;;;14.90;91.00;;;;;;5039230;28;20017;-72
2022/04/12 09:47:44;;;;;;;9.32;4.47;;;15.00;90.80;;;;;;5040709;28;20053;-73
2022/04/12 09:50:10;;;;;;;8.50;4.18;;;15.10;90.30;;;;;;5041275;28;20486;-72
2022/04/12 09:52:37;;;;;;;7.63;4.18;;;15.10;90.30;;;;;;5040864;28;21001;-72
2022/04/12 09:55:06;;;;;;;8.23;4.00;;;15.20;90.90;;;;;;5039570;28;20148;-72
2022/04/12 09:57:33;;;;;;;9.63;4.10;;;15.30;90.50;;;;;;5036037;28;20032;-73
2022/04/12 09:59:58;;;;;;;7.80;4.25;;;15.30;90.70;;;;;;5042413;28;20112;-73
2022/04/12 10:02:26;;;;;;;6.18;3.42;;;15.40;90.30;;;;;;5043686;28;20107;-73
2022/04/12 10:04:53;;;;;;;8.07;3.25;;;15.60;90.70;;;;;;5043088;28;20029;-73
2022/04/12 10:07:21;;;;;;;6.25;3.30;;;15.70;90.10;;;;;;5042013;28;20025;-72
2022/04/12 10:09:49;;;;;;;6.65;2.90;;;15.80;89.10;;;;;;5045482;28;20493;-72
2022/04/12 10:12:15;;;;;;;7.80;3.17;;;16.00;87.50;;;;;;5040499;28;20036;-71
2022/04/12 10:14:41;;;;;;;8.40;3.17;;;16.10;87.00;;;;;;5040817;28;20029;-72
2022/04/12 10:17:07;;;;;;;6.20;2.78;;;16.30;87.50;;;;;;5043142;28;20082;-72
2022/04/12 10:19:34;;;;;;;5.93;2.83;;;16.30;85.00;;;;;;5039558;28;21428;-73
2022/04/12 10:22:00;;;;;;;6.53;2.90;;;16.50;84.50;;;;;;5040514;28;20025;-71
2022/04/12 10:24:27;;;;;;;4.50;3.00;;;16.60;83.80;;;;;;5037433;28;20365;-72
2022/04/12 10:26:54;;;;;;;8.48;3.00;;;16.60;82.10;;;;;;5044694;28;20099;-71
2022/04/12 10:29:20;;;;;;;7.43;2.75;;;16.80;80.80;;;;;;5044589;28;20036;-72
2022/04/12 10:32:03;;;;;;;5.22;3.25;;;16.90;80.40;;;;;;5046564;28;20037;-72
2022/04/12 10:34:30;;;;;;;7.00;3.45;;;17.10;78.50;;;;;;5044360;28;20029;-72
2022/04/12 10:37:04;;;;;;;7.13;3.00;;;17.20;77.20;;;;;;5038849;28;20029;-72
2022/04/12 10:39:50;;;;;;;10.15;3.80;;;17.40;75.90;;;;;;5038813;28;20048;-72
2022/04/12 10:42:24;;;;;;;6.25;2.50;;;17.70;74.70;;;;;;5043021;28;20108;-71
2022/04/12 10:44:56;;;;;;;5.60;2.72;;;17.80;72.50;;;;;;5045225;28;20021;-71
2022/04/12 10:47:36;;;;;;;6.22;2.22;;;18.00;70.70;;;;;;5039789;28;20033;-71
2022/04/12 10:50:13;;;;;;;5.70;2.08;;;18.10;69.80;;;;;;5035116;28;20067;-72
2022/04/12 10:52:42;;;;;;;5.75;2.05;;;18.30;69.50;;;;;;5039163;28;20025;-71
2022/04/12 10:55:27;;;;;;;2.25;1.30;;;18.40;68.50;;;;;;5041447;28;20100;-72
2022/04/12 10:58:29;;;;;;;2.17;1.00;;;18.60;60.90;;;;;;5044361;28;20476;-71
2022/04/12 11:01:01;;;;;;;2.95;0.90;;;18.90;56.20;;;;;;5042520;28;20043;-72
2022/04/12 11:03:43;;;;;;;1.65;0.85;;;19.20;55.20;;;;;;5042806;28;20025;-71
2022/04/12 11:06:29;;;;;;;1.77;1.02;;;19.40;52.70;;;;;;5043704;28;20027;-71
2022/04/12 11:09:11;;;;;;;2.38;0.95;;;19.50;51.50;;;;;;5046262;28;20086;-73
2022/04/12 11:11:41;;;;;;;2.95;0.95;;;19.70;51.10;;;;;;5051462;28;20557;-72
2022/04/12 11:14:41;;;;;;;3.00;0.70;;;19.80;50.20;;;;;;5043519;28;20035;-72
2022/04/12 11:17:14;;;;;;;2.05;0.77;;;20.10;49.20;;;;;;5040333;28;20048;-69
2022/04/12 11:19:45;;;;;;;4.43;2.03;;;20.20;49.50;;;;;;5043785;28;20029;-71
2022/04/12 11:22:16;;;;;;;4.43;1.63;;;20.30;48.60;;;;;;5045211;28;20029;-71
2022/04/12 11:24:42;;;;;;;2.85;0.90;;;20.40;48.20;;;;;;5047758;28;20110;-70
2022/04/12 11:27:10;;;;;;;3.85;0.90;;;20.50;48.20;;;;;;5043367;28;20028;-71
2022/04/12 11:29:38;;;;;;;1.92;0.70;;;20.50;48.00;;;;;;5038505;28;20489;-71
2022/04/12 11:32:04;;;;;;;11.60;1.10;;;20.60;47.80;;;;;;5044271;28;20065;-71
2022/04/12 11:34:31;;;;;;;2.60;0.90;;;20.60;48.10;;;;;;5038834;28;20063;-71
2022/04/12 11:37:11;;;;;;;1.20;0.93;;;20.70;48.00;;;;;;5037656;28;20034;-71
2022/04/12 11:39:49;;;;;;;2.80;0.68;;;20.80;47.70;;;;;;5043459;28;20429;-71
2022/04/12 11:42:15;;;;;;;1.15;0.63;;;20.90;47.50;;;;;;5042513;28;20033;-71
2022/04/12 11:44:53;;;;;;;2.45;0.85;;;21.00;47.20;;;;;;5044707;28;20033;-71
2022/04/12 11:47:27;;;;;;;1.85;1.02;;;21.20;46.80;;;;;;5043448;28;20025;-71
2022/04/12 11:49:56;;;;;;;1.60;0.93;;;21.30;46.80;;;;;;5043437;28;20367;-71
2022/04/12 11:52:22;;;;;;;2.72;1.10;;;21.50;46.60;;;;;;5040237;28;20474;-71
2022/04/12 11:54:48;;;;;;;2.10;0.77;;;21.50;46.10;;;;;;5037010;28;20025;-73
2022/04/12 11:57:23;;;;;;;1.25;0.95;;;21.70;46.20;;;;;;5049340;28;20024;-73
2022/04/12 11:59:54;;;;;;;3.67;0.85;;;21.80;46.30;;;;;;5045451;28;20056;-72
2022/04/12 12:02:31;;;;;;;2.58;0.68;;;21.90;45.90;;;;;;5043898;28;20033;-73
2022/04/12 12:05:05;;;;;;;2.40;1.20;;;21.90;46.30;;;;;;5042858;28;20425;-71
2022/04/12 12:07:35;;;;;;;1.98;1.25;;;22.00;47.10;;;;;;5040749;28;20112;-72
2022/04/12 12:10:07;;;;;;;2.42;1.20;;;22.20;45.60;;;;;;5039555;28;20029;-70
2022/04/12 12:12:47;;;;;;;3.47;1.30;;;22.20;45.80;;;;;;5043487;28;20042;-71
2022/04/12 12:15:22;;;;;;;3.67;0.90;;;22.20;45.80;;;;;;5042093;28;20039;-71
2022/04/12 12:17:53;;;;;;;1.35;0.80;;;22.40;45.40;;;;;;5046145;28;20047;-71
2022/04/12 12:20:24;;;;;;;2.97;1.10;;;22.40;46.20;;;;;;5042623;28;20474;-71
2022/04/12 12:22:58;;;;;;;3.08;1.25;;;22.40;45.60;;;;;;5041469;28;20505;-71
2022/04/12 12:25:46;;;;;;;2.20;1.20;;;22.50;45.20;;;;;;5044046;28;20304;-71
2022/04/12 12:28:17;;;;;;;2.28;1.00;;;22.70;44.90;;;;;;5036834;28;20394;-72
2022/04/12 12:30:43;;;;;;;4.88;1.10;;;22.70;44.30;;;;;;5043495;28;20083;-72
2022/04/12 12:33:09;;;;;;;4.32;1.10;;;22.70;44.40;;;;;;5043572;28;20052;-72
2022/04/12 12:35:39;;;;;;;2.25;1.10;;;22.70;44.10;;;;;;5045478;28;20087;-72
2022/04/12 12:38:16;;;;;;;2.90;1.17;;;22.80;43.70;;;;;;5042921;28;20017;-72
2022/04/12 12:40:43;;;;;;;1.75;0.73;;;22.80;44.10;;;;;;5040430;28;20073;-72
2022/04/12 12:43:15;;;;;;;1.70;0.85;;;22.90;43.50;;;;;;5039089;28;20030;-71
2022/04/12 12:45:46;;;;;;;1.80;1.15;;;23.00;44.80;;;;;;5043061;28;20033;-72
2022/04/12 12:48:13;;;;;;;2.65;1.17;;;23.00;43.70;;;;;;5040351;28;20513;-70
2022/04/12 12:50:40;;;;;;;3.30;1.02;;;22.90;43.70;;;;;;5042667;28;20033;-70
2022/04/12 12:53:15;;;;;;;3.17;0.77;;;23.00;43.20;;;;;;5042047;28;20021;-70
2022/04/12 12:55:43;;;;;;;2.42;0.90;;;23.00;42.90;;;;;;5041044;28;20032;-70
2022/04/12 12:58:13;;;;;;;1.58;0.88;;;23.10;42.10;;;;;;5042020;28;20111;-74